Time;durP1;ratioP1;P1;durP2;ratioP2;P2;SDS_P1;SDS_P2;PMS_P1;PMS_P2;Temp;Humidity;BMP_temperature;BMP_pressure;BME280_temperature;BME280_humidity;BME280_pressure;Samples;Min_cycle;Max_cycle;Signal;HPM_P1;HPM_P2
2023/01/04 00:01:08;;;;;;;3.95;1.50;;;;;;;;;;5027360;28;20064;-85
2023/01/04 00:03:33;;;;;;;2.72;1.48;;;;;;;;;;5047543;28;20119;-84
2023/01/04 00:06:02;;;;;;;2.13;1.30;;;;;;;;;;5048703;28;20510;-85
2023/01/04 00:08:28;;;;;;;2.55;1.20;;;;;;;;;;5032064;28;20025;-84
2023/01/04 00:11:00;;;;;;;3.63;1.50;;;;;;;;;;5047569;28;20068;-85
2023/01/04 00:13:25;;;;;;;2.08;1.30;;;;;;;;;;5047166;28;20621;-85
2023/01/04 00:15:51;;;;;;;1.75;1.17;;;;;;;;;;5048279;28;20044;-86
2023/01/04 00:18:16;;;;;;;2.75;1.35;;;;;;;;;;5029374;28;20037;-84
2023/01/04 00:20:41;;;;;;;2.22;1.02;;;;;;;;;;5028637;28;20123;-84
2023/01/04 00:23:07;;;;;;;4.63;1.50;;;;;;;;;;5045244;28;20052;-86
2023/01/04 00:25:32;;;;;;;3.92;1.92;;;;;;;;;;5030026;28;20044;-84
2023/01/04 00:27:57;;;;;;;3.05;1.25;;;;;;;;;;5029760;28;20602;-85
2023/01/04 00:30:23;;;;;;;3.72;1.75;;;;;;;;;;5046412;28;20067;-84
2023/01/04 00:32:48;;;;;;;1.92;1.00;;;;;;;;;;5030007;28;20079;-84
2023/01/04 00:35:13;;;;;;;3.38;1.27;;;;;;;;;;5037348;28;20071;-85
2023/01/04 00:37:39;;;;;;;2.38;1.23;;;;;;;;;;5044987;28;20041;-85
2023/01/04 00:40:04;;;;;;;2.35;1.15;;;;;;;;;;5028078;28;20077;-85
2023/01/04 00:42:30;;;;;;;2.97;1.30;;;;;;;;;;5045105;28;20115;-84
2023/01/04 00:44:56;;;;;;;2.20;1.40;;;;;;;;;;5026200;28;20471;-85
2023/01/04 00:47:21;;;;;;;3.55;1.83;;;;;;;;;;5041868;28;20020;-84
2023/01/04 00:49:47;;;;;;;6.25;1.65;;;;;;;;;;5041027;28;20033;-85
2023/01/04 00:52:12;;;;;;;2.17;1.40;;;;;;;;;;5046756;28;20184;-84
2023/01/04 00:54:37;;;;;;;2.22;1.42;;;;;;;;;;5024421;28;20227;-84
2023/01/04 00:57:04;;;;;;;3.17;1.60;;;;;;;;;;5035603;28;20107;-84
2023/01/04 00:59:29;;;;;;;2.85;1.70;;;;;;;;;;5046567;28;20066;-84
2023/01/04 01:01:55;;;;;;;3.08;1.70;;;;;;;;;;5046576;28;20512;-85
2023/01/04 01:04:22;;;;;;;3.63;1.90;;;;;;;;;;5046932;28;20028;-85
2023/01/04 01:06:48;;;;;;;4.72;1.80;;;;;;;;;;5027758;28;20068;-84
2023/01/04 01:09:14;;;;;;;1.83;1.38;;;;;;;;;;5026665;28;20489;-84
2023/01/04 01:11:40;;;;;;;5.07;1.92;;;;;;;;;;5040300;28;20036;-84
2023/01/04 01:14:07;;;;;;;3.47;1.88;;;;;;;;;;5042630;28;20048;-85
2023/01/04 01:16:32;;;;;;;3.63;1.95;;;;;;;;;;5045194;28;20513;-85
2023/01/04 01:18:57;;;;;;;4.13;1.80;;;;;;;;;;5027870;28;20036;-85
2023/01/04 01:21:26;;;;;;;4.22;2.13;;;;;;;;;;5044200;28;20044;-85
2023/01/04 01:23:52;;;;;;;3.75;1.77;;;;;;;;;;5045795;28;20032;-85
2023/01/04 01:26:20;;;;;;;5.60;2.10;;;;;;;;;;5028133;28;20060;-85
2023/01/04 01:28:46;;;;;;;3.88;1.98;;;;;;;;;;5045496;28;20041;-85
2023/01/04 01:31:14;;;;;;;3.03;1.83;;;;;;;;;;5046548;28;20049;-85
2023/01/04 01:33:41;;;;;;;5.05;2.35;;;;;;;;;;5027249;28;20041;-86
2023/01/04 01:36:07;;;;;;;3.13;2.03;;;;;;;;;;5045732;28;20099;-84
2023/01/04 01:38:33;;;;;;;4.72;2.17;;;;;;;;;;5045469;28;20032;-84
2023/01/04 01:40:59;;;;;;;3.05;1.95;;;;;;;;;;5020869;28;20033;-84
2023/01/04 01:43:46;;;;;;;3.47;2.00;;;;;;;;;;5031712;28;20032;-84
2023/01/04 01:46:12;;;;;;;5.47;2.20;;;;;;;;;;5043129;28;20040;-85
2023/01/04 01:48:39;;;;;;;2.65;2.10;;;;;;;;;;5038408;28;20033;-85
2023/01/04 01:51:05;;;;;;;6.90;2.30;;;;;;;;;;5038264;28;20029;-85
2023/01/04 01:53:34;;;;;;;6.00;2.63;;;;;;;;;;5037684;28;20029;-85
2023/01/04 01:56:01;;;;;;;6.50;1.75;;;;;;;;;;5027111;28;20619;-85
2023/01/04 01:58:33;;;;;;;5.72;2.40;;;;;;;;;;5043963;28;20472;-84
2023/01/04 02:00:59;;;;;;;7.60;2.33;;;;;;;;;;5042111;28;20031;-85
2023/01/04 02:03:37;;;;;;;6.53;2.45;;;;;;;;;;5023031;28;20267;-85
2023/01/04 02:06:06;;;;;;;6.13;2.72;;;;;;;;;;5025980;28;20029;-85
2023/01/04 02:08:31;;;;;;;4.78;1.85;;;;;;;;;;5046327;28;20021;-85
2023/01/04 02:10:57;;;;;;;6.72;2.72;;;;;;;;;;5045918;28;20123;-84
2023/01/04 02:14:25;;;;;;;6.40;2.10;;;;;;;;;;5014561;28;20046;-84
2023/01/04 02:16:30;;;;;;;6.10;2.35;;;;;;;;;;5042398;28;20549;-85
2023/01/04 02:19:13;;;;;;;7.15;2.55;;;;;;;;;;5026282;28;20094;-84
2023/01/04 02:22:01;;;;;;;3.90;1.63;;;;;;;;;;5031758;28;20048;-85
2023/01/04 02:24:29;;;;;;;3.88;2.20;;;;;;;;;;5029350;28;20036;-85
2023/01/04 02:27:23;;;;;;;8.88;2.53;;;;;;;;;;5037584;28;20510;-84
2023/01/04 02:29:57;;;;;;;10.70;2.45;;;;;;;;;;5031548;28;20484;-84
2023/01/04 02:32:35;;;;;;;3.92;2.17;;;;;;;;;;5026599;28;20032;-85
2023/01/04 02:35:16;;;;;;;5.18;2.35;;;;;;;;;;5022275;28;20060;-80
2023/01/04 02:37:54;;;;;;;5.75;2.38;;;;;;;;;;5039834;28;20036;-85
2023/01/04 02:40:31;;;;;;;4.00;1.73;;;;;;;;;;5027547;28;20029;-85
2023/01/04 02:45:58;;;;;;;4.22;1.80;;;;;;;;;;5045397;28;20087;-85
2023/01/04 02:51:26;;;;;;;2.38;1.48;;;;;;;;;;5042958;28;20132;-85
2023/01/04 02:53:51;;;;;;;3.40;1.52;;;;;;;;;;5032102;28;20052;-85
2023/01/04 02:56:39;;;;;;;2.92;1.90;;;;;;;;;;5047482;28;20482;-85
2023/01/04 02:59:41;;;;;;;5.63;1.88;;;;;;;;;;5034702;28;20114;-85
2023/01/04 03:08:45;;;;;;;8.68;1.95;;;;;;;;;;5046214;28;20052;-84
2023/01/04 03:14:02;;;;;;;3.63;2.00;;;;;;;;;;5043385;28;20051;-85
2023/01/04 03:16:29;;;;;;;2.65;1.67;;;;;;;;;;5049043;28;20025;-85
2023/01/04 03:19:02;;;;;;;5.78;1.92;;;;;;;;;;5048425;28;20059;-86
2023/01/04 03:21:29;;;;;;;5.88;1.80;;;;;;;;;;5047518;28;20112;-84
2023/01/04 03:35:28;;;;;;;6.88;1.60;;;;;;;;;;5043337;28;20723;-85
2023/01/04 03:50:24;;;;;;;3.28;1.60;;;;;;;;;;5038317;28;20128;-84
2023/01/04 03:52:51;;;;;;;3.40;1.80;;;;;;;;;;5029593;28;20112;-85
2023/01/04 03:55:17;;;;;;;1.95;1.50;;;;;;;;;;5047966;28;20025;-85
2023/01/04 03:57:44;;;;;;;4.13;1.58;;;;;;;;;;5037917;28;20038;-81
2023/01/04 04:00:13;;;;;;;3.45;1.63;;;;;;;;;;5046819;28;20037;-84
2023/01/04 04:02:40;;;;;;;3.10;1.60;;;;;;;;;;5048497;28;20045;-84
2023/01/04 04:10:34;;;;;;;5.00;1.70;;;;;;;;;;5039299;28;20064;-84
2023/01/04 04:12:59;;;;;;;2.65;1.55;;;;;;;;;;5031375;28;20511;-80
2023/01/04 04:15:24;;;;;;;5.10;1.73;;;;;;;;;;5045236;28;20086;-85
2023/01/04 04:17:50;;;;;;;2.53;1.52;;;;;;;;;;5046077;28;20021;-84
2023/01/04 04:20:15;;;;;;;3.03;1.35;;;;;;;;;;5029241;28;20478;-84
2023/01/04 04:22:41;;;;;;;2.50;1.80;;;;;;;;;;5040821;28;20776;-85
2023/01/04 04:25:06;;;;;;;4.28;1.63;;;;;;;;;;5025982;28;20044;-85
2023/01/04 04:27:32;;;;;;;1.48;1.05;;;;;;;;;;5037276;28;20041;-85
2023/01/04 04:29:57;;;;;;;2.05;1.38;;;;;;;;;;5046751;28;20043;-85
2023/01/04 04:32:22;;;;;;;2.83;1.33;;;;;;;;;;5039797;28;20113;-85
2023/01/04 04:34:48;;;;;;;2.22;1.35;;;;;;;;;;5036485;28;20148;-84
2023/01/04 04:37:13;;;;;;;6.05;1.67;;;;;;;;;;5045751;28;20582;-84
2023/01/04 04:39:39;;;;;;;4.32;1.60;;;;;;;;;;5045972;28;20554;-85
2023/01/04 04:42:04;;;;;;;3.40;1.40;;;;;;;;;;5027814;28;20021;-84
2023/01/04 04:44:29;;;;;;;3.85;1.40;;;;;;;;;;5047271;28;20041;-84
2023/01/04 04:46:55;;;;;;;5.75;1.58;;;;;;;;;;5027767;28;20660;-85
2023/01/04 04:49:20;;;;;;;5.28;1.40;;;;;;;;;;5027002;28;20506;-84
2023/01/04 04:51:46;;;;;;;1.63;1.17;;;;;;;;;;5046763;28;20581;-84
2023/01/04 04:54:17;;;;;;;2.45;1.20;;;;;;;;;;5034803;28;20202;-84
2023/01/04 04:56:43;;;;;;;2.95;1.20;;;;;;;;;;5043165;28;20028;-84
2023/01/04 04:59:11;;;;;;;5.05;1.83;;;;;;;;;;5027317;28;20040;-84
2023/01/04 05:01:37;;;;;;;2.65;1.20;;;;;;;;;;5044920;28;20083;-85
2023/01/04 05:04:02;;;;;;;3.70;1.50;;;;;;;;;;5028485;28;20065;-85
2023/01/04 05:06:28;;;;;;;3.65;1.40;;;;;;;;;;5027237;28;20040;-85
2023/01/04 05:08:53;;;;;;;1.92;1.33;;;;;;;;;;5026097;28;20025;-84
2023/01/04 05:12:58;;;;;;;1.90;1.15;;;;;;;;;;5041121;28;20418;-85
2023/01/04 05:14:04;;;;;;;3.83;1.50;;;;;;;;;;5044961;28;20029;-85
2023/01/04 05:16:29;;;;;;;3.45;1.10;;;;;;;;;;5021579;28;20037;-84
2023/01/04 05:18:55;;;;;;;1.73;1.20;;;;;;;;;;5046660;28;20558;-84
2023/01/04 05:21:20;;;;;;;3.30;1.40;;;;;;;;;;5045307;28;20106;-84
2023/01/04 05:23:45;;;;;;;4.25;1.52;;;;;;;;;;5035220;28;20078;-84
2023/01/04 05:26:11;;;;;;;1.95;1.33;;;;;;;;;;5017728;28;20159;-85
2023/01/04 05:28:36;;;;;;;4.82;1.30;;;;;;;;;;5045917;28;20033;-84
2023/01/04 05:31:01;;;;;;;1.73;1.20;;;;;;;;;;5045883;28;20033;-84
2023/01/04 05:33:30;;;;;;;2.97;1.50;;;;;;;;;;5046367;28;20086;-84
2023/01/04 05:35:58;;;;;;;3.58;1.30;;;;;;;;;;5044117;28;20025;-85
2023/01/04 05:38:24;;;;;;;2.45;1.30;;;;;;;;;;5047050;28;20397;-84
2023/01/04 05:40:50;;;;;;;2.42;1.40;;;;;;;;;;5045113;28;20708;-84
2023/01/04 05:43:16;;;;;;;1.65;1.30;;;;;;;;;;5026721;28;20120;-84
2023/01/04 05:45:43;;;;;;;2.17;1.33;;;;;;;;;;5045456;28;20544;-84
2023/01/04 05:48:09;;;;;;;1.70;1.20;;;;;;;;;;5041391;28;20041;-84
2023/01/04 05:50:34;;;;;;;3.38;1.40;;;;;;;;;;5022311;28;20017;-85
2023/01/04 05:53:00;;;;;;;2.10;1.58;;;;;;;;;;5046429;28;20031;-85
2023/01/04 05:55:25;;;;;;;3.22;1.50;;;;;;;;;;5032172;28;20042;-82
2023/01/04 05:57:51;;;;;;;3.55;1.27;;;;;;;;;;5043217;28;20029;-84
2023/01/04 06:00:16;;;;;;;1.80;1.20;;;;;;;;;;5049693;28;20124;-84
2023/01/04 06:02:42;;;;;;;2.03;1.30;;;;;;;;;;5046366;28;20362;-85
2023/01/04 06:05:09;;;;;;;5.05;1.30;;;;;;;;;;5048189;28;20453;-85
2023/01/04 06:07:35;;;;;;;6.82;1.35;;;;;;;;;;5025355;28;20037;-85
2023/01/04 06:10:00;;;;;;;1.60;1.30;;;;;;;;;;5049510;28;20581;-86
2023/01/04 06:12:26;;;;;;;1.75;1.45;;;;;;;;;;5025702;28;20574;-84
2023/01/04 06:14:51;;;;;;;5.25;1.50;;;;;;;;;;5048877;28;20035;-85
2023/01/04 06:17:17;;;;;;;1.77;1.30;;;;;;;;;;5031420;28;20043;-85
2023/01/04 06:19:42;;;;;;;6.20;1.70;;;;;;;;;;5048617;28;20053;-85
2023/01/04 06:22:07;;;;;;;2.42;1.10;;;;;;;;;;5036390;28;20086;-85
2023/01/04 06:24:33;;;;;;;2.22;1.40;;;;;;;;;;5047592;28;20116;-84
2023/01/04 06:26:59;;;;;;;1.30;1.20;;;;;;;;;;5049743;28;20108;-85
2023/01/04 06:29:24;;;;;;;2.75;1.30;;;;;;;;;;5048836;28;20086;-84
2023/01/04 06:31:50;;;;;;;1.40;1.20;;;;;;;;;;5024257;28;20036;-84
2023/01/04 06:34:15;;;;;;;1.95;1.30;;;;;;;;;;5048608;28;20063;-84
2023/01/04 06:36:40;;;;;;;2.00;1.40;;;;;;;;;;5048750;28;20044;-84
2023/01/04 06:39:07;;;;;;;2.33;1.10;;;;;;;;;;5049091;28;20095;-84
2023/01/04 06:41:33;;;;;;;1.73;1.35;;;;;;;;;;5047869;28;20028;-85
2023/01/04 06:43:58;;;;;;;1.25;1.10;;;;;;;;;;5049625;28;20056;-84
2023/01/04 06:46:24;;;;;;;2.53;1.17;;;;;;;;;;5048039;28;20064;-85
2023/01/04 06:48:49;;;;;;;1.60;1.00;;;;;;;;;;5029991;28;20094;-85
2023/01/04 06:51:15;;;;;;;1.83;1.20;;;;;;;;;;5047278;28;20044;-85
2023/01/04 06:53:40;;;;;;;2.58;1.20;;;;;;;;;;5048525;28;20077;-85
2023/01/04 06:56:07;;;;;;;3.70;1.40;;;;;;;;;;5046019;28;20029;-84
2023/01/04 06:58:34;;;;;;;5.43;1.08;;;;;;;;;;5028970;28;20094;-85
2023/01/04 07:01:00;;;;;;;2.33;0.90;;;;;;;;;;5047505;28;20143;-84
2023/01/04 07:03:25;;;;;;;4.97;1.08;;;;;;;;;;5043053;28;20505;-84
2023/01/04 07:05:51;;;;;;;1.60;1.15;;;;;;;;;;5021692;28;20036;-85
2023/01/04 07:08:16;;;;;;;1.30;1.10;;;;;;;;;;5014303;28;20075;-84
2023/01/04 07:10:42;;;;;;;1.15;1.05;;;;;;;;;;5038924;28;20037;-85
2023/01/04 07:13:08;;;;;;;1.20;1.10;;;;;;;;;;5038481;28;20127;-85
2023/01/04 07:15:35;;;;;;;1.50;1.17;;;;;;;;;;5022486;28;20056;-84
2023/01/04 07:18:00;;;;;;;1.65;1.10;;;;;;;;;;5046793;28;20021;-85
2023/01/04 07:20:26;;;;;;;2.55;1.30;;;;;;;;;;5043121;28;20029;-84
2023/01/04 07:22:53;;;;;;;2.33;1.13;;;;;;;;;;5015439;28;20120;-85
2023/01/04 07:25:18;;;;;;;1.20;0.90;;;;;;;;;;5046686;28;20033;-85
2023/01/04 07:27:44;;;;;;;1.40;1.00;;;;;;;;;;5044490;28;20091;-84
2023/01/04 07:30:10;;;;;;;1.80;1.15;;;;;;;;;;5034080;28;20033;-84
2023/01/04 07:32:35;;;;;;;1.17;1.02;;;;;;;;;;5039683;28;20028;-85
2023/01/04 07:35:01;;;;;;;1.23;0.70;;;;;;;;;;5035101;28;20715;-84
2023/01/04 07:37:26;;;;;;;2.58;1.27;;;;;;;;;;5046465;28;20029;-85
2023/01/04 07:39:51;;;;;;;1.10;0.85;;;;;;;;;;5046358;28;20037;-85
2023/01/04 07:42:18;;;;;;;3.70;2.17;;;;;;;;;;5040977;28;20037;-84
2023/01/04 07:44:44;;;;;;;2.72;1.40;;;;;;;;;;5030135;28;20021;-84
2023/01/04 07:47:09;;;;;;;3.00;1.33;;;;;;;;;;5047035;28;20044;-85
2023/01/04 07:49:35;;;;;;;2.35;1.10;;;;;;;;;;5037610;28;20036;-85
2023/01/04 07:52:00;;;;;;;3.10;1.10;;;;;;;;;;5039581;28;20041;-84
2023/01/04 07:54:26;;;;;;;6.47;1.30;;;;;;;;;;5046482;28;20529;-84
2023/01/04 07:56:51;;;;;;;1.73;1.00;;;;;;;;;;5046395;28;20025;-85
2023/01/04 07:59:19;;;;;;;2.88;1.10;;;;;;;;;;5029962;28;20017;-85
2023/01/04 08:01:45;;;;;;;2.00;1.05;;;;;;;;;;5047421;28;20052;-84
2023/01/04 08:04:11;;;;;;;3.03;1.08;;;;;;;;;;5046951;28;20061;-84
2023/01/04 08:06:38;;;;;;;3.38;1.08;;;;;;;;;;5047530;28;20033;-85
2023/01/04 08:09:04;;;;;;;1.67;1.10;;;;;;;;;;5029478;28;20079;-85
2023/01/04 08:11:30;;;;;;;2.03;1.15;;;;;;;;;;5030341;28;20021;-84
2023/01/04 08:13:55;;;;;;;3.45;1.17;;;;;;;;;;5044576;28;20064;-85
2023/01/04 08:16:26;;;;;;;2.72;1.05;;;;;;;;;;5025103;28;20043;-85
2023/01/04 08:18:59;;;;;;;5.85;1.65;;;;;;;;;;5022755;28;20973;-85
2023/01/04 08:21:27;;;;;;;4.43;1.27;;;;;;;;;;5042921;28;20510;-84
2023/01/04 08:23:52;;;;;;;3.10;1.10;;;;;;;;;;5020881;28;20025;-83
2023/01/04 08:26:20;;;;;;;1.60;1.13;;;;;;;;;;5037066;28;20024;-83
2023/01/04 08:28:46;;;;;;;4.57;1.10;;;;;;;;;;5029653;28;20579;-84
2023/01/04 08:31:23;;;;;;;1.20;1.08;;;;;;;;;;5027186;28;20045;-84
2023/01/04 08:33:51;;;;;;;2.25;1.25;;;;;;;;;;5037715;28;20063;-85
2023/01/04 08:36:31;;;;;;;3.90;1.65;;;;;;;;;;5045943;28;20036;-85
2023/01/04 08:39:01;;;;;;;2.53;1.00;;;;;;;;;;5044511;28;20100;-84
2023/01/04 08:41:31;;;;;;;4.88;1.30;;;;;;;;;;5027220;28;20037;-85
2023/01/04 08:43:56;;;;;;;3.90;1.52;;;;;;;;;;5041568;28;20663;-83
2023/01/04 08:46:22;;;;;;;2.38;1.00;;;;;;;;;;5036281;28;20674;-84
2023/01/04 08:48:47;;;;;;;2.15;1.00;;;;;;;;;;5039010;28;20544;-84
2023/01/04 08:51:15;;;;;;;2.55;1.13;;;;;;;;;;5035655;28;20045;-82
2023/01/04 08:53:40;;;;;;;2.78;0.95;;;;;;;;;;5042721;28;20029;-84
2023/01/04 08:56:06;;;;;;;2.15;1.15;;;;;;;;;;5031901;28;20045;-84
2023/01/04 08:58:33;;;;;;;2.33;1.35;;;;;;;;;;5045925;28;20121;-84
2023/01/04 09:01:09;;;;;;;1.73;1.00;;;;;;;;;;5024337;28;20032;-84
2023/01/04 09:03:36;;;;;;;3.13;1.33;;;;;;;;;;5037560;28;20544;-84
2023/01/04 09:06:07;;;;;;;4.00;0.88;;;;;;;;;;5024378;28;20300;-84
2023/01/04 09:08:33;;;;;;;1.60;1.02;;;;;;;;;;5030681;28;20107;-81
2023/01/04 09:11:07;;;;;;;2.55;1.00;;;;;;;;;;5021552;28;20537;-84
2023/01/04 09:13:33;;;;;;;;;;;;;;;;;;5045474;28;20044;-83
2023/01/04 09:16:03;;;;;;;2.08;0.98;;;;;;;;;;5039721;28;19912;-84
2023/01/04 09:18:29;;;;;;;1.52;1.00;;;;;;;;;;5035346;28;20583;-84
2023/01/04 09:20:54;;;;;;;2.80;1.25;;;;;;;;;;5040060;28;20052;-84
2023/01/04 09:23:20;;;;;;;1.77;0.95;;;;;;;;;;5040365;28;20021;-84
2023/01/04 09:25:46;;;;;;;3.75;1.02;;;;;;;;;;5027913;28;20418;-80
2023/01/04 09:28:11;;;;;;;1.35;1.00;;;;;;;;;;5042334;28;20041;-77
2023/01/04 09:30:36;;;;;;;1.15;0.82;;;;;;;;;;5035780;28;20045;-80
2023/01/04 09:33:02;;;;;;;1.42;1.00;;;;;;;;;;5043595;28;20040;-82
2023/01/04 09:35:27;;;;;;;1.13;0.80;;;;;;;;;;5044450;28;20029;-81
2023/01/04 09:37:54;;;;;;;0.80;0.80;;;;;;;;;;5025685;28;20136;-80
2023/01/04 09:40:26;;;;;;;4.90;1.08;;;;;;;;;;5044316;28;20033;-79
2023/01/04 09:42:52;;;;;;;3.00;1.00;;;;;;;;;;5014885;28;20035;-84
2023/01/04 09:45:21;;;;;;;1.88;0.90;;;;;;;;;;5027141;28;20459;-83
2023/01/04 09:48:06;;;;;;;2.05;1.00;;;;;;;;;;5025639;28;20024;-84
2023/01/04 09:50:50;;;;;;;3.90;0.90;;;;;;;;;;5044938;28;20505;-84
2023/01/04 09:53:51;;;;;;;3.25;1.00;;;;;;;;;;5033895;28;20091;-84
2023/01/04 09:56:28;;;;;;;1.55;0.80;;;;;;;;;;4981717;28;20080;-84
2023/01/04 09:58:54;;;;;;;4.15;1.20;;;;;;;;;;5025838;28;20090;-84
2023/01/04 10:01:22;;;;;;;3.42;0.90;;;;;;;;;;5045071;28;20045;-83
2023/01/04 10:04:02;;;;;;;5.10;1.17;;;;;;;;;;5026399;28;20041;-84
2023/01/04 10:06:32;;;;;;;1.33;0.85;;;;;;;;;;5044533;28;20029;-83
2023/01/04 10:09:02;;;;;;;1.00;0.90;;;;;;;;;;5043637;28;20716;-83
2023/01/04 10:11:33;;;;;;;2.08;1.00;;;;;;;;;;5044734;28;20131;-83
2023/01/04 10:14:11;;;;;;;1.63;0.90;;;;;;;;;;5043748;28;20033;-83
2023/01/04 10:16:52;;;;;;;1.90;0.80;;;;;;;;;;5024810;28;20443;-84
2023/01/04 10:19:35;;;;;;;5.72;1.10;;;;;;;;;;5026367;28;20033;-85
2023/01/04 10:22:19;;;;;;;;;;;;;;;;;;5025337;28;20079;-84
2023/01/04 10:24:48;;;;;;;0.82;0.80;;;;;;;;;;5044188;28;19912;-84
2023/01/04 10:27:26;;;;;;;0.95;0.80;;;;;;;;;;5040283;28;20111;-85
2023/01/04 10:29:54;;;;;;;1.35;0.82;;;;;;;;;;5042814;28;20100;-86
2023/01/04 10:32:36;;;;;;;4.38;1.20;;;;;;;;;;5045272;28;20070;-85
2023/01/04 10:35:17;;;;;;;1.70;1.10;;;;;;;;;;5043405;28;20067;-84
2023/01/04 10:37:45;;;;;;;2.00;1.10;;;;;;;;;;5025438;28;20087;-85
2023/01/04 10:40:13;;;;;;;3.83;1.10;;;;;;;;;;5026181;28;20080;-84
2023/01/04 10:43:03;;;;;;;3.38;1.08;;;;;;;;;;5045971;28;20106;-84
2023/01/04 10:45:38;;;;;;;2.58;1.00;;;;;;;;;;5047871;28;20700;-85
2023/01/04 10:48:14;;;;;;;2.72;0.95;;;;;;;;;;5026112;28;20103;-85
2023/01/04 10:50:57;;;;;;;2.50;1.00;;;;;;;;;;5041132;28;20112;-85
2023/01/04 10:53:28;;;;;;;1.92;1.00;;;;;;;;;;5047896;28;20403;-84
2023/01/04 10:56:24;;;;;;;5.00;1.25;;;;;;;;;;5046486;28;20109;-84
2023/01/04 10:59:15;;;;;;;2.28;1.17;;;;;;;;;;5019888;28;20787;-85
2023/01/04 11:01:59;;;;;;;2.88;1.35;;;;;;;;;;5027784;28;20128;-85
2023/01/04 11:04:37;;;;;;;1.42;1.08;;;;;;;;;;5039760;28;20479;-84
2023/01/04 11:07:09;;;;;;;2.35;1.30;;;;;;;;;;5044518;28;20048;-85
2023/01/04 11:09:43;;;;;;;2.95;1.20;;;;;;;;;;5045905;28;20132;-84
2023/01/04 11:12:11;;;;;;;4.03;1.23;;;;;;;;;;5042326;28;20041;-83
2023/01/04 11:14:36;;;;;;;2.47;1.23;;;;;;;;;;5023679;28;20052;-81
2023/01/04 11:17:07;;;;;;;4.85;1.10;;;;;;;;;;5035398;28;20489;-84
2023/01/04 11:19:33;;;;;;;3.15;1.20;;;;;;;;;;5039129;28;20041;-82
2023/01/04 11:22:12;;;;;;;3.15;1.15;;;;;;;;;;5045480;28;20480;-83
2023/01/04 11:24:39;;;;;;;2.00;1.10;;;;;;;;;;5028055;28;20037;-84
2023/01/04 11:27:11;;;;;;;2.85;1.30;;;;;;;;;;5046642;28;20490;-83
2023/01/04 11:29:56;;;;;;;1.55;1.20;;;;;;;;;;5046822;28;20052;-84
2023/01/04 11:32:43;;;;;;;5.07;1.27;;;;;;;;;;5027237;28;20414;-83
2023/01/04 11:35:09;;;;;;;4.13;1.20;;;;;;;;;;5040676;28;20130;-83
2023/01/04 11:37:37;;;;;;;5.25;1.70;;;;;;;;;;5020836;28;20060;-84
2023/01/04 11:40:21;;;;;;;1.75;1.23;;;;;;;;;;5045563;28;20041;-84
2023/01/04 11:43:00;;;;;;;3.92;1.25;;;;;;;;;;5033656;28;20077;-84
2023/01/04 11:45:27;;;;;;;2.08;1.38;;;;;;;;;;5046235;28;20032;-83
2023/01/04 11:47:57;;;;;;;4.30;1.23;;;;;;;;;;5043740;28;20020;-84
2023/01/04 11:50:46;;;;;;;3.63;1.27;;;;;;;;;;5017703;28;20022;-84
2023/01/04 11:53:26;;;;;;;2.38;1.50;;;;;;;;;;5045394;28;20064;-84
2023/01/04 11:56:10;;;;;;;2.88;1.48;;;;;;;;;;5046433;28;20112;-84
2023/01/04 11:58:36;;;;;;;2.60;1.25;;;;;;;;;;5045436;28;20044;-84
2023/01/04 12:01:01;;;;;;;2.95;1.27;;;;;;;;;;5046342;28;20029;-84
2023/01/04 12:03:36;;;;;;;2.25;1.25;;;;;;;;;;5046012;28;20115;-84
2023/01/04 12:06:02;;;;;;;2.17;1.23;;;;;;;;;;5033106;28;20035;-84
2023/01/04 12:08:27;;;;;;;4.82;1.50;;;;;;;;;;5046461;28;20021;-84
2023/01/04 12:10:52;;;;;;;4.47;1.33;;;;;;;;;;5020640;28;20049;-84
2023/01/04 12:13:18;;;;;;;5.80;1.30;;;;;;;;;;5041123;28;20112;-83
2023/01/04 12:15:56;;;;;;;2.08;1.20;;;;;;;;;;5044314;28;20040;-85
2023/01/04 12:18:27;;;;;;;4.35;1.25;;;;;;;;;;5024945;28;20041;-83
2023/01/04 12:20:53;;;;;;;3.50;1.42;;;;;;;;;;5045551;28;20052;-84
2023/01/04 12:23:19;;;;;;;3.95;1.27;;;;;;;;;;5026510;28;20029;-83
2023/01/04 12:25:50;;;;;;;1.55;1.20;;;;;;;;;;5027290;28;20051;-83
2023/01/04 12:28:30;;;;;;;1.75;1.20;;;;;;;;;;5042522;28;20803;-83
2023/01/04 12:31:17;;;;;;;6.00;1.17;;;;;;;;;;5038006;28;20094;-84
2023/01/04 12:34:09;;;;;;;2.53;1.30;;;;;;;;;;5042861;28;20041;-84
2023/01/04 12:36:38;;;;;;;1.55;1.13;;;;;;;;;;5020681;28;20128;-84
2023/01/04 12:39:12;;;;;;;3.05;1.38;;;;;;;;;;5025571;28;20029;-84
2023/01/04 12:41:37;;;;;;;5.15;1.52;;;;;;;;;;5027786;28;20021;-84
2023/01/04 12:44:35;;;;;;;3.88;1.55;;;;;;;;;;5027951;28;20098;-85
2023/01/04 12:49:56;;;;;;;4.28;1.40;;;;;;;;;;5045331;28;20751;-84
2023/01/04 12:52:22;;;;;;;4.43;1.30;;;;;;;;;;5045287;28;20045;-84
2023/01/04 12:54:49;;;;;;;6.03;1.40;;;;;;;;;;5027911;28;20477;-83
2023/01/04 12:57:17;;;;;;;1.70;1.10;;;;;;;;;;5026193;28;20037;-84
2023/01/04 13:00:08;;;;;;;3.22;1.63;;;;;;;;;;5028281;28;20032;-84
2023/01/04 13:02:42;;;;;;;2.22;1.35;;;;;;;;;;5044189;28;20295;-85
2023/01/04 13:05:17;;;;;;;2.33;1.73;;;;;;;;;;5045751;28;20048;-84
2023/01/04 13:07:49;;;;;;;2.75;1.45;;;;;;;;;;5033542;28;20049;-79
2023/01/04 13:10:17;;;;;;;5.07;2.17;;;;;;;;;;5021873;28;20056;-81
2023/01/04 13:12:57;;;;;;;2.60;1.50;;;;;;;;;;5036839;28;20045;-81
2023/01/04 13:15:41;;;;;;;2.08;1.67;;;;;;;;;;5037758;28;20055;-77
2023/01/04 13:18:25;;;;;;;;;;;;;;;;;;5015381;28;20049;-82
2023/01/04 13:20:50;;;;;;;3.78;1.60;;;;;;;;;;5041479;28;19921;-81
2023/01/04 13:23:15;;;;;;;1.88;1.30;;;;;;;;;;5044226;28;20098;-82
2023/01/04 13:25:41;;;;;;;4.50;1.20;;;;;;;;;;5026187;28;20126;-81
2023/01/04 13:28:16;;;;;;;1.88;1.23;;;;;;;;;;5043343;28;20029;-84
2023/01/04 13:30:42;;;;;;;1.95;1.15;;;;;;;;;;5026688;28;20079;-83
2023/01/04 13:33:19;;;;;;;1.35;1.17;;;;;;;;;;5025581;28;20068;-83
2023/01/04 13:36:09;;;;;;;1.42;0.98;;;;;;;;;;5044525;28;20047;-83
2023/01/04 13:38:38;;;;;;;1.42;1.20;;;;;;;;;;5026063;28;20541;-82
2023/01/04 13:41:18;;;;;;;1.48;1.10;;;;;;;;;;5044438;28;20122;-83
2023/01/04 13:44:06;;;;;;;2.10;1.10;;;;;;;;;;5044396;28;20033;-83
2023/01/04 13:46:31;;;;;;;2.58;1.17;;;;;;;;;;5016250;28;20721;-83
2023/01/04 13:49:00;;;;;;;1.70;1.10;;;;;;;;;;5032595;28;20046;-83
2023/01/04 13:51:29;;;;;;;2.67;1.10;;;;;;;;;;5044773;28;20032;-84
2023/01/04 13:53:59;;;;;;;2.20;1.35;;;;;;;;;;5043179;28;20029;-81
2023/01/04 13:56:27;;;;;;;3.47;1.38;;;;;;;;;;5032283;28;20452;-83
2023/01/04 13:58:53;;;;;;;1.75;1.33;;;;;;;;;;5043270;28;20106;-83
2023/01/04 14:01:21;;;;;;;2.35;1.40;;;;;;;;;;5025221;28;20037;-84
2023/01/04 14:03:57;;;;;;;1.65;1.20;;;;;;;;;;5040655;28;20041;-84
2023/01/04 14:06:39;;;;;;;1.58;1.10;;;;;;;;;;5025967;28;20048;-84
2023/01/04 14:09:10;;;;;;;1.80;1.40;;;;;;;;;;5021057;28;20029;-84
2023/01/04 14:14:22;;;;;;;1.77;1.38;;;;;;;;;;5043470;28;20072;-84
2023/01/04 14:16:48;;;;;;;2.38;1.30;;;;;;;;;;5028848;28;20064;-84
2023/01/04 14:19:51;;;;;;;2.22;1.60;;;;;;;;;;5047421;28;20025;-84
2023/01/04 14:22:22;;;;;;;2.17;1.25;;;;;;;;;;5001792;28;20033;-83
2023/01/04 14:24:49;;;;;;;2.85;1.70;;;;;;;;;;5030574;28;20068;-85
2023/01/04 14:27:32;;;;;;;5.43;1.80;;;;;;;;;;5029395;28;20058;-85
2023/01/04 14:29:57;;;;;;;1.35;0.98;;;;;;;;;;5029465;28;20057;-84
2023/01/04 14:32:24;;;;;;;2.13;1.15;;;;;;;;;;5029176;28;20020;-85
2023/01/04 14:34:52;;;;;;;3.53;1.40;;;;;;;;;;5046056;28;20759;-85
2023/01/04 14:37:19;;;;;;;2.25;1.33;;;;;;;;;;5024155;28;20033;-84
2023/01/04 14:39:45;;;;;;;9.30;1.63;;;;;;;;;;5043640;28;20044;-85
2023/01/04 14:42:30;;;;;;;3.25;1.20;;;;;;;;;;5047707;28;20416;-85
2023/01/04 14:44:58;;;;;;;4.32;1.30;;;;;;;;;;5047840;28;20120;-84
2023/01/04 14:47:24;;;;;;;4.47;1.10;;;;;;;;;;5048140;28;20051;-85
2023/01/04 14:49:50;;;;;;;4.88;1.27;;;;;;;;;;5028505;28;20414;-85
2023/01/04 14:52:22;;;;;;;4.45;1.10;;;;;;;;;;5046973;28;20513;-84
2023/01/04 14:54:49;;;;;;;6.47;1.40;;;;;;;;;;5029638;28;20120;-84
2023/01/04 14:57:15;;;;;;;5.07;1.30;;;;;;;;;;5047504;28;20033;-84
2023/01/04 14:59:43;;;;;;;5.07;1.42;;;;;;;;;;5048098;28;20055;-84
2023/01/04 15:02:13;;;;;;;7.53;1.20;;;;;;;;;;5047277;28;20510;-85
2023/01/04 15:04:39;;;;;;;7.20;1.90;;;;;;;;;;5029601;28;20041;-84
2023/01/04 15:07:05;;;;;;;6.15;1.50;;;;;;;;;;5045224;28;20044;-85
2023/01/04 15:09:34;;;;;;;13.90;1.92;;;;;;;;;;5028758;28;20048;-84
2023/01/04 15:12:00;;;;;;;11.77;2.00;;;;;;;;;;5027980;28;20052;-84
2023/01/04 15:14:28;;;;;;;11.02;2.20;;;;;;;;;;5031074;28;20059;-85
2023/01/04 15:16:58;;;;;;;7.70;1.65;;;;;;;;;;5040651;28;20102;-85
2023/01/04 15:19:26;;;;;;;9.90;1.88;;;;;;;;;;5046023;28;20025;-85
2023/01/04 15:21:53;;;;;;;19.27;3.70;;;;;;;;;;5045640;28;20479;-85
2023/01/04 15:24:24;;;;;;;11.82;2.00;;;;;;;;;;5045657;28;20088;-85
2023/01/04 15:26:50;;;;;;;12.55;2.08;;;;;;;;;;5027984;28;20028;-85
2023/01/04 15:29:17;;;;;;;11.02;1.98;;;;;;;;;;5028848;28;20029;-85
2023/01/04 15:31:44;;;;;;;13.80;2.92;;;;;;;;;;5046254;28;20044;-85
2023/01/04 15:34:11;;;;;;;13.68;1.95;;;;;;;;;;5046708;28;20033;-85
2023/01/04 15:36:39;;;;;;;14.15;2.20;;;;;;;;;;5024139;28;20522;-81
2023/01/04 15:39:07;;;;;;;15.15;2.20;;;;;;;;;;5037209;28;20036;-85
2023/01/04 15:44:20;;;;;;;11.90;2.20;;;;;;;;;;5044925;28;20055;-84
2023/01/04 15:46:50;;;;;;;11.77;1.92;;;;;;;;;;5056556;28;20049;-82
2023/01/04 15:49:17;;;;;;;14.02;1.92;;;;;;;;;;5044777;28;20043;-84
2023/01/04 15:51:45;;;;;;;12.30;2.10;;;;;;;;;;5047617;28;20396;-87